Time;durP1;ratioP1;P1;durP2;ratioP2;P2;SDS_P1;SDS_P2;PMS_P1;PMS_P2;Temp;Humidity;BMP_temperature;BMP_pressure;BME280_temperature;BME280_humidity;BME280_pressure;Samples;Min_cycle;Max_cycle;Signal;HPM_P1;HPM_P2
2023/11/13 00:01:15;;;;;;;0.00;0.00;;;13.10;99.90;;;;;;5046502;28;20079;-76
2023/11/13 00:03:41;;;;;;;0.00;0.00;;;13.10;99.90;;;;;;5046941;28;20648;-76
2023/11/13 00:06:07;;;;;;;0.00;0.00;;;13.10;99.90;;;;;;5046772;28;20025;-77
2023/11/13 00:08:33;;;;;;;0.00;0.00;;;13.10;99.90;;;;;;5053809;28;20033;-76
2023/11/13 00:10:59;;;;;;;0.00;0.00;;;13.00;99.90;;;;;;5049029;28;20104;-76
2023/11/13 00:13:25;;;;;;;0.00;0.00;;;13.10;99.90;;;;;;5059831;28;20121;-76
2023/11/13 00:15:51;;;;;;;0.00;0.00;;;13.10;99.90;;;;;;5052327;28;20036;-76
2023/11/13 00:18:16;;;;;;;0.00;0.00;;;13.10;99.90;;;;;;5044668;28;20065;-76
2023/11/13 00:20:45;;;;;;;0.10;0.10;;;13.20;99.90;;;;;;5046170;28;20037;-76
2023/11/13 00:23:10;;;;;;;0.25;0.25;;;13.20;99.90;;;;;;5051345;28;20028;-76
2023/11/13 00:25:36;;;;;;;0.00;0.00;;;13.20;99.90;;;;;;5052905;28;20030;-75
2023/11/13 00:28:02;;;;;;;0.00;0.00;;;13.10;99.90;;;;;;5045515;28;20021;-76
2023/11/13 00:30:27;;;;;;;0.00;0.00;;;13.10;99.90;;;;;;5046389;28;20017;-75
2023/11/13 00:32:53;;;;;;;0.00;0.00;;;13.10;99.90;;;;;;5044884;28;20088;-76
2023/11/13 00:35:18;;;;;;;0.00;0.00;;;13.20;99.90;;;;;;5046902;28;20079;-76
2023/11/13 00:37:44;;;;;;;0.10;0.10;;;13.20;99.90;;;;;;5055740;28;20025;-76
2023/11/13 00:40:12;;;;;;;0.00;0.00;;;13.20;99.90;;;;;;5055377;28;20016;-76
2023/11/13 00:42:39;;;;;;;0.00;0.00;;;13.20;99.90;;;;;;5045074;28;20053;-76
2023/11/13 00:45:06;;;;;;;0.00;0.00;;;13.20;99.90;;;;;;5050673;28;21365;-76
2023/11/13 00:47:32;;;;;;;0.00;0.00;;;13.10;99.90;;;;;;5052439;28;20053;-76
2023/11/13 00:49:57;;;;;;;0.00;0.00;;;13.20;99.90;;;;;;5044854;28;20028;-76
2023/11/13 00:52:23;;;;;;;0.00;0.00;;;13.10;99.90;;;;;;5046179;28;20021;-75
2023/11/13 00:54:49;;;;;;;0.03;0.03;;;13.20;99.90;;;;;;5050377;28;20025;-76
2023/11/13 00:57:15;;;;;;;0.08;0.08;;;13.10;99.90;;;;;;5054041;28;20048;-75
2023/11/13 00:59:40;;;;;;;0.00;0.00;;;13.10;99.90;;;;;;5048548;28;20029;-76
2023/11/13 01:02:06;;;;;;;0.00;0.00;;;13.00;99.90;;;;;;5044590;28;20021;-76
2023/11/13 01:04:32;;;;;;;0.10;0.10;;;13.00;99.90;;;;;;5048458;28;20037;-76
2023/11/13 01:06:57;;;;;;;0.00;0.00;;;13.00;99.90;;;;;;5047431;28;20029;-75
2023/11/13 01:09:23;;;;;;;0.00;0.00;;;12.90;99.90;;;;;;5049706;28;20126;-75
2023/11/13 01:11:50;;;;;;;0.00;0.00;;;13.00;99.90;;;;;;5055037;28;20028;-75
2023/11/13 01:14:16;;;;;;;0.03;0.03;;;12.90;99.90;;;;;;5050868;28;20195;-75
2023/11/13 01:16:42;;;;;;;79.13;2.63;;;12.90;99.90;;;;;;5054993;28;20095;-74
2023/11/13 01:19:07;;;;;;;0.10;0.10;;;13.00;99.90;;;;;;5048967;28;20028;-75
2023/11/13 01:21:33;;;;;;;0.00;0.00;;;13.00;99.90;;;;;;5055988;28;20385;-75
2023/11/13 01:23:58;;;;;;;0.00;0.00;;;12.90;99.90;;;;;;5053921;28;20033;-75
2023/11/13 01:26:25;;;;;;;0.95;0.90;;;13.00;99.90;;;;;;5049123;28;20047;-75
2023/11/13 01:28:51;;;;;;;0.00;0.00;;;12.90;99.90;;;;;;5051035;28;20029;-75
2023/11/13 01:31:17;;;;;;;0.10;0.10;;;12.80;99.90;;;;;;5046770;28;20139;-76
2023/11/13 01:33:42;;;;;;;0.00;0.00;;;12.90;99.90;;;;;;5054092;28;20039;-75
2023/11/13 01:36:08;;;;;;;0.10;0.10;;;12.80;99.90;;;;;;5050702;28;20032;-76
2023/11/13 01:38:34;;;;;;;0.43;0.43;;;12.80;99.90;;;;;;5054888;28;20029;-76
2023/11/13 01:41:00;;;;;;;0.10;0.10;;;12.70;99.90;;;;;;5053987;28;20142;-76
2023/11/13 01:43:26;;;;;;;0.10;0.10;;;12.80;99.90;;;;;;5048845;28;20033;-76
2023/11/13 01:45:54;;;;;;;0.03;0.03;;;12.70;99.90;;;;;;5038021;28;20040;-76
2023/11/13 01:48:21;;;;;;;0.10;0.10;;;12.80;99.90;;;;;;5046944;28;20037;-76
2023/11/13 01:50:48;;;;;;;;;;;12.80;99.90;;;;;;5058474;28;20025;-76
2023/11/13 01:53:17;;;;;;;0.00;0.00;;;12.80;99.90;;;;;;5048537;28;20208;-76
2023/11/13 01:55:44;;;;;;;0.00;0.00;;;12.80;99.90;;;;;;5058015;28;20103;-76
2023/11/13 01:58:10;;;;;;;0.00;0.00;;;12.80;99.90;;;;;;5057554;28;20032;-77
2023/11/13 02:00:36;;;;;;;0.10;0.10;;;12.90;99.90;;;;;;5048615;28;20040;-77
2023/11/13 02:03:05;;;;;;;0.00;0.00;;;12.80;99.90;;;;;;5048502;28;20033;-77
2023/11/13 02:05:31;;;;;;;0.00;0.00;;;12.80;99.90;;;;;;5048953;28;20025;-76
2023/11/13 02:07:57;;;;;;;;;;;12.70;99.90;;;;;;5057145;28;20037;-76
2023/11/13 02:10:23;;;;;;;0.10;0.10;;;12.80;99.90;;;;;;5038615;28;19966;-76
2023/11/13 02:12:49;;;;;;;0.00;0.00;;;12.80;99.90;;;;;;5040684;28;20044;-76
2023/11/13 02:15:15;;;;;;;0.10;0.10;;;12.80;99.90;;;;;;5044395;28;20021;-76
2023/11/13 02:17:57;;;;;;;0.10;0.10;;;12.80;99.90;;;;;;5044293;28;20039;-76
2023/11/13 02:20:23;;;;;;;0.10;0.10;;;12.80;99.90;;;;;;5044945;28;20017;-75
2023/11/13 02:22:49;;;;;;;0.10;0.10;;;12.80;99.90;;;;;;5039245;28;20040;-75
2023/11/13 02:25:16;;;;;;;0.10;0.10;;;12.80;99.90;;;;;;5043114;28;20108;-75
2023/11/13 02:27:44;;;;;;;1.95;0.52;;;12.70;99.90;;;;;;5036349;28;20075;-76
2023/11/13 02:30:10;;;;;;;0.10;0.10;;;12.70;99.90;;;;;;5038112;28;20059;-76
2023/11/13 02:32:36;;;;;;;0.10;0.10;;;12.70;99.90;;;;;;5045115;28;20870;-76
2023/11/13 02:35:01;;;;;;;0.00;0.00;;;12.70;99.90;;;;;;5048296;28;20326;-76
2023/11/13 02:37:27;;;;;;;0.00;0.00;;;12.60;99.90;;;;;;5045657;28;20650;-76
2023/11/13 02:39:53;;;;;;;0.00;0.00;;;12.50;99.90;;;;;;5043470;28;20024;-76
2023/11/13 02:42:18;;;;;;;0.00;0.00;;;12.50;99.90;;;;;;5046712;28;20049;-77
2023/11/13 02:44:44;;;;;;;0.00;0.00;;;12.50;99.90;;;;;;5036734;28;20052;-77
2023/11/13 02:47:09;;;;;;;0.00;0.00;;;12.50;99.90;;;;;;5041966;28;20025;-76
2023/11/13 02:49:36;;;;;;;0.00;0.00;;;12.40;99.90;;;;;;5043826;28;20600;-77
2023/11/13 02:52:02;;;;;;;;;;;12.40;99.90;;;;;;5039428;28;20039;-77
2023/11/13 02:54:28;;;;;;;0.00;0.00;;;12.40;99.90;;;;;;5042608;28;20003;-77
2023/11/13 02:56:53;;;;;;;0.00;0.00;;;12.40;99.90;;;;;;5046129;28;20564;-77
2023/11/13 02:59:19;;;;;;;0.00;0.00;;;12.40;99.90;;;;;;5043372;28;20038;-77
2023/11/13 03:01:44;;;;;;;0.10;0.10;;;12.50;99.90;;;;;;5043482;28;20032;-76
2023/11/13 03:04:10;;;;;;;0.03;0.03;;;12.40;99.90;;;;;;5038358;28;20638;-77
2023/11/13 03:06:35;;;;;;;0.00;0.00;;;12.40;99.90;;;;;;5046300;28;20037;-76
2023/11/13 03:09:01;;;;;;;0.00;0.00;;;12.40;99.90;;;;;;5043605;28;20094;-76
2023/11/13 03:11:27;;;;;;;0.00;0.00;;;12.40;99.90;;;;;;5041494;28;20060;-76
2023/11/13 03:13:52;;;;;;;0.10;0.10;;;12.40;99.90;;;;;;5045903;28;20061;-76
2023/11/13 03:16:18;;;;;;;0.10;0.10;;;12.30;99.90;;;;;;5044420;28;20056;-75
2023/11/13 03:18:43;;;;;;;0.00;0.00;;;12.30;99.90;;;;;;5046975;28;20033;-76
2023/11/13 03:21:09;;;;;;;0.00;0.00;;;12.30;99.90;;;;;;5044372;28;20021;-76
2023/11/13 03:23:35;;;;;;;0.03;0.03;;;12.20;99.90;;;;;;5043990;28;20083;-76
2023/11/13 03:26:03;;;;;;;0.10;0.10;;;12.20;99.90;;;;;;5046610;28;20032;-76
2023/11/13 03:28:29;;;;;;;0.10;0.10;;;12.20;99.90;;;;;;5045086;28;20044;-76
2023/11/13 03:30:55;;;;;;;0.00;0.00;;;12.20;99.90;;;;;;5044280;28;20033;-76
2023/11/13 03:33:23;;;;;;;0.00;0.00;;;12.20;99.90;;;;;;5045984;28;20282;-76
2023/11/13 03:35:49;;;;;;;0.10;0.10;;;12.20;99.90;;;;;;5042863;28;20048;-75
2023/11/13 03:38:14;;;;;;;0.10;0.10;;;12.20;99.90;;;;;;5040666;28;20147;-75
2023/11/13 03:40:40;;;;;;;0.03;0.03;;;12.20;99.90;;;;;;5045282;28;20607;-77
2023/11/13 03:43:06;;;;;;;0.10;0.10;;;12.20;99.90;;;;;;5045256;28;20070;-76
2023/11/13 03:45:32;;;;;;;0.00;0.00;;;12.20;99.90;;;;;;5045213;28;20033;-75
2023/11/13 03:47:58;;;;;;;0.00;0.00;;;12.10;99.90;;;;;;5038559;28;20056;-76
2023/11/13 03:50:24;;;;;;;0.10;0.10;;;12.10;99.90;;;;;;5045873;28;20021;-75
2023/11/13 03:52:50;;;;;;;0.00;0.00;;;12.10;99.90;;;;;;5036971;28;20377;-76
2023/11/13 03:55:15;;;;;;;0.00;0.00;;;12.10;99.90;;;;;;5043207;28;20033;-76
2023/11/13 03:57:41;;;;;;;0.10;0.10;;;12.10;99.90;;;;;;5044492;28;20013;-76
2023/11/13 04:00:07;;;;;;;0.10;0.10;;;12.00;99.90;;;;;;5041740;28;20143;-76
2023/11/13 04:02:33;;;;;;;0.00;0.00;;;12.00;99.90;;;;;;5041780;28;20013;-75
2023/11/13 04:04:59;;;;;;;0.10;0.10;;;12.00;99.90;;;;;;5046909;28;20088;-76
2023/11/13 04:07:24;;;;;;;0.00;0.00;;;11.80;99.90;;;;;;5042187;28;20041;-75
2023/11/13 04:09:50;;;;;;;0.00;0.00;;;11.80;99.90;;;;;;5046731;28;20032;-76
2023/11/13 04:12:16;;;;;;;0.00;0.00;;;11.70;99.90;;;;;;5037902;28;20018;-77
2023/11/13 04:14:41;;;;;;;0.80;0.67;;;11.70;99.90;;;;;;5041566;28;20025;-76
2023/11/13 04:17:08;;;;;;;0.10;0.10;;;11.70;99.90;;;;;;5038614;28;20033;-75
2023/11/13 04:19:33;;;;;;;0.10;0.10;;;11.70;99.90;;;;;;5041648;28;20098;-76
2023/11/13 04:21:59;;;;;;;0.00;0.00;;;11.80;99.90;;;;;;5033252;28;20041;-76
2023/11/13 04:24:25;;;;;;;0.00;0.00;;;11.70;99.90;;;;;;5045664;28;20029;-77
2023/11/13 04:26:50;;;;;;;0.08;0.08;;;11.70;99.90;;;;;;5034373;28;20048;-76
2023/11/13 04:29:16;;;;;;;0.10;0.10;;;11.70;99.90;;;;;;5047723;28;20202;-75
2023/11/13 04:31:42;;;;;;;0.10;0.10;;;11.70;99.90;;;;;;5040046;28;20160;-76
2023/11/13 04:34:07;;;;;;;0.10;0.10;;;11.70;99.90;;;;;;5042284;28;20033;-76
2023/11/13 04:36:33;;;;;;;0.17;0.17;;;11.70;99.90;;;;;;5035667;28;20036;-75
2023/11/13 04:38:59;;;;;;;0.10;0.10;;;11.70;99.90;;;;;;5039723;28;20040;-76
2023/11/13 04:41:26;;;;;;;0.00;0.00;;;11.70;99.90;;;;;;5043535;28;20056;-76
2023/11/13 04:43:52;;;;;;;0.10;0.10;;;11.70;99.90;;;;;;5043284;28;20408;-76
2023/11/13 04:46:19;;;;;;;0.27;0.27;;;11.70;99.90;;;;;;5041148;28;20041;-76
2023/11/13 04:48:45;;;;;;;0.10;0.10;;;11.70;99.90;;;;;;5036725;28;20033;-76
2023/11/13 04:51:11;;;;;;;0.10;0.10;;;11.70;99.90;;;;;;5044720;28;20032;-77
2023/11/13 04:53:37;;;;;;;0.00;0.00;;;11.70;99.90;;;;;;5040297;28;20825;-75
2023/11/13 04:56:02;;;;;;;0.10;0.10;;;11.70;99.90;;;;;;5048975;28;20122;-76
2023/11/13 04:58:28;;;;;;;0.10;0.10;;;11.70;99.90;;;;;;5045939;28;20025;-78
2023/11/13 05:00:54;;;;;;;0.10;0.10;;;11.70;99.90;;;;;;5042486;28;20552;-78
2023/11/13 05:03:19;;;;;;;0.10;0.10;;;11.70;99.90;;;;;;5049085;28;20032;-75
2023/11/13 05:05:45;;;;;;;0.00;0.00;;;11.70;99.90;;;;;;5041427;28;20025;-75
2023/11/13 05:08:11;;;;;;;0.10;0.10;;;11.70;99.90;;;;;;5049935;28;20720;-76
2023/11/13 05:10:36;;;;;;;0.10;0.10;;;11.70;99.90;;;;;;5044617;28;20021;-76
2023/11/13 05:13:02;;;;;;;0.10;0.10;;;11.70;99.90;;;;;;5047231;28;20025;-74
2023/11/13 05:15:29;;;;;;;0.10;0.10;;;11.70;99.90;;;;;;5049122;28;20043;-75
2023/11/13 05:17:55;;;;;;;0.10;0.10;;;11.70;99.90;;;;;;5047143;28;20649;-75
2023/11/13 05:20:21;;;;;;;0.10;0.10;;;11.60;99.90;;;;;;5038441;28;20033;-75
2023/11/13 05:22:48;;;;;;;0.10;0.10;;;11.50;99.90;;;;;;5048926;28;20037;-75
2023/11/13 05:25:14;;;;;;;0.10;0.10;;;11.50;99.90;;;;;;5049629;28;20029;-74
2023/11/13 05:27:40;;;;;;;0.10;0.10;;;11.50;99.90;;;;;;5045276;28;20045;-75
2023/11/13 05:30:07;;;;;;;0.00;0.00;;;11.50;99.90;;;;;;5046631;28;20033;-75
2023/11/13 05:32:33;;;;;;;0.00;0.00;;;11.50;99.90;;;;;;5042823;28;20540;-74
2023/11/13 05:34:59;;;;;;;0.10;0.10;;;11.50;99.90;;;;;;5046328;28;20035;-74
2023/11/13 05:37:25;;;;;;;0.10;0.10;;;11.50;99.90;;;;;;5045664;28;20112;-74
2023/11/13 05:39:50;;;;;;;0.00;0.00;;;11.40;99.90;;;;;;5044243;28;20029;-74
2023/11/13 05:42:17;;;;;;;0.10;0.10;;;11.40;99.90;;;;;;5045945;28;20063;-73
2023/11/13 05:44:44;;;;;;;0.10;0.10;;;11.40;99.90;;;;;;5043980;28;20047;-74
2023/11/13 05:47:09;;;;;;;;;;;11.50;99.90;;;;;;5041062;28;20044;-74
2023/11/13 05:49:35;;;;;;;0.00;0.00;;;11.50;99.90;;;;;;5045126;28;19916;-75
2023/11/13 05:52:01;;;;;;;0.10;0.10;;;11.50;99.90;;;;;;5045264;28;20067;-74
2023/11/13 05:54:27;;;;;;;0.05;0.05;;;11.50;99.90;;;;;;5035730;28;20026;-74
2023/11/13 05:56:53;;;;;;;0.10;0.10;;;11.50;99.90;;;;;;5048215;28;20110;-74
2023/11/13 05:59:19;;;;;;;0.10;0.10;;;11.50;99.90;;;;;;5037986;28;20053;-74
2023/11/13 06:01:44;;;;;;;0.00;0.00;;;11.50;99.90;;;;;;5045628;28;20071;-73
2023/11/13 06:04:10;;;;;;;0.00;0.00;;;11.50;99.90;;;;;;5038257;28;20084;-74
2023/11/13 06:06:36;;;;;;;1.73;1.63;;;11.60;99.90;;;;;;5038859;28;20033;-74
2023/11/13 06:09:01;;;;;;;0.00;0.00;;;11.70;99.90;;;;;;5041177;28;20420;-75
2023/11/13 06:11:27;;;;;;;0.10;0.10;;;11.90;99.90;;;;;;5035393;28;20038;-74
2023/11/13 06:13:53;;;;;;;0.10;0.10;;;12.00;99.90;;;;;;5047496;28;20039;-74
2023/11/13 06:16:20;;;;;;;0.00;0.00;;;12.00;99.90;;;;;;5047084;28;20029;-74
2023/11/13 06:18:53;;;;;;;0.00;0.00;;;12.00;99.90;;;;;;5048499;28;20109;-75
2023/11/13 06:21:19;;;;;;;0.00;0.00;;;11.90;99.90;;;;;;5046708;28;20033;-75
2023/11/13 06:23:45;;;;;;;0.10;0.10;;;11.80;99.90;;;;;;5048666;28;20062;-74
2023/11/13 06:26:12;;;;;;;1.80;1.70;;;11.80;99.90;;;;;;5035963;28;20112;-76
2023/11/13 06:28:38;;;;;;;0.10;0.10;;;11.80;99.90;;;;;;5042812;28;20606;-76
2023/11/13 06:31:05;;;;;;;0.08;0.08;;;12.00;99.90;;;;;;5041672;28;20029;-76
2023/11/13 06:33:31;;;;;;;;;;;12.10;99.90;;;;;;5034094;28;20025;-75
2023/11/13 06:35:57;;;;;;;1.23;1.13;;;12.10;99.90;;;;;;5041890;28;19967;-75
2023/11/13 06:38:22;;;;;;;0.23;0.23;;;12.20;99.90;;;;;;5042482;28;20572;-76
2023/11/13 06:40:49;;;;;;;0.10;0.10;;;12.10;99.90;;;;;;5043074;28;20041;-75
2023/11/13 06:43:15;;;;;;;0.10;0.10;;;12.20;99.90;;;;;;5042043;28;20025;-75
2023/11/13 06:45:43;;;;;;;1.10;1.10;;;12.10;99.90;;;;;;5037214;28;20055;-76
2023/11/13 06:48:09;;;;;;;0.10;0.10;;;12.10;99.90;;;;;;5048092;28;20051;-76
2023/11/13 06:50:36;;;;;;;0.10;0.10;;;12.10;99.90;;;;;;5032049;28;20029;-76
2023/11/13 06:53:02;;;;;;;0.10;0.10;;;12.10;99.90;;;;;;5042598;28;20854;-76
2023/11/13 06:55:28;;;;;;;0.95;0.95;;;12.10;99.90;;;;;;5044423;28;20079;-76
2023/11/13 06:57:55;;;;;;;0.10;0.10;;;12.20;99.90;;;;;;5047830;28;20040;-76
2023/11/13 07:00:21;;;;;;;0.35;0.35;;;12.20;99.90;;;;;;5039485;28;20021;-75
2023/11/13 07:02:49;;;;;;;0.10;0.10;;;12.20;99.90;;;;;;5038544;28;20068;-75
2023/11/13 07:05:15;;;;;;;0.00;0.00;;;12.20;99.90;;;;;;5039212;28;20812;-75
2023/11/13 07:07:41;;;;;;;0.20;0.20;;;12.30;99.90;;;;;;5044820;28;20037;-74
2023/11/13 07:10:12;;;;;;;0.33;0.33;;;12.30;99.90;;;;;;5036658;28;20057;-74
2023/11/13 07:12:41;;;;;;;0.45;0.45;;;12.30;99.90;;;;;;5042309;28;20028;-74
2023/11/13 07:15:07;;;;;;;0.10;0.10;;;12.40;99.90;;;;;;5045782;28;20033;-75
2023/11/13 07:17:33;;;;;;;0.37;0.30;;;12.40;99.90;;;;;;5028472;28;20083;-75
2023/11/13 07:19:59;;;;;;;0.20;0.20;;;12.40;99.90;;;;;;5040748;28;20068;-75
2023/11/13 07:22:28;;;;;;;0.10;0.10;;;12.30;99.90;;;;;;5042021;28;20100;-75
2023/11/13 07:24:54;;;;;;;0.00;0.00;;;12.40;99.90;;;;;;5028535;28;20052;-75
2023/11/13 07:27:21;;;;;;;0.10;0.10;;;12.30;99.90;;;;;;5043280;28;20404;-76
2023/11/13 07:29:53;;;;;;;0.10;0.10;;;12.30;99.90;;;;;;5029465;28;20045;-75
2023/11/13 07:32:18;;;;;;;0.10;0.10;;;12.40;99.90;;;;;;5043710;28;20029;-75
2023/11/13 07:34:44;;;;;;;0.10;0.10;;;12.40;99.90;;;;;;5042818;28;20026;-75
2023/11/13 07:37:10;;;;;;;0.10;0.10;;;12.50;99.90;;;;;;5042452;28;20033;-75
2023/11/13 07:39:36;;;;;;;0.00;0.00;;;12.40;99.90;;;;;;5037584;28;20119;-75
2023/11/13 07:42:03;;;;;;;0.00;0.00;;;12.40;99.90;;;;;;5038502;28;20049;-75
2023/11/13 07:44:28;;;;;;;0.10;0.10;;;12.40;99.90;;;;;;5040803;28;20034;-75
2023/11/13 07:46:54;;;;;;;0.10;0.10;;;12.40;99.90;;;;;;5035926;28;20114;-74
2023/11/13 07:49:20;;;;;;;0.00;0.00;;;12.40;99.90;;;;;;5040707;28;20069;-75
2023/11/13 07:51:46;;;;;;;0.00;0.00;;;12.40;99.90;;;;;;5034788;28;20124;-75
2023/11/13 07:54:12;;;;;;;0.08;0.08;;;12.50;99.90;;;;;;5035413;28;20033;-75
2023/11/13 07:56:38;;;;;;;0.00;0.00;;;12.60;99.90;;;;;;5044681;28;20028;-75
2023/11/13 07:59:07;;;;;;;0.20;0.20;;;12.70;99.90;;;;;;5036794;28;20021;-75
2023/11/13 08:01:37;;;;;;;0.10;0.10;;;12.80;99.90;;;;;;5036820;28;20856;-75
2023/11/13 08:04:07;;;;;;;0.10;0.10;;;13.00;99.90;;;;;;5046654;28;20749;-75
2023/11/13 08:06:33;;;;;;;0.10;0.10;;;13.00;99.90;;;;;;5046783;28;20110;-75
2023/11/13 08:08:59;;;;;;;0.00;0.00;;;13.10;99.90;;;;;;5041919;28;20037;-75
2023/11/13 08:11:25;;;;;;;0.00;0.00;;;13.20;99.90;;;;;;5042031;28;20051;-75
2023/11/13 08:13:51;;;;;;;0.00;0.00;;;13.80;99.90;;;;;;5036246;28;20052;-75
2023/11/13 08:16:18;;;;;;;0.00;0.00;;;14.60;99.90;;;;;;5038387;28;20582;-75
2023/11/13 08:18:44;;;;;;;0.05;0.05;;;14.30;99.90;;;;;;5049623;28;20025;-75
2023/11/13 08:21:10;;;;;;;0.00;0.00;;;13.80;99.90;;;;;;5050888;28;20113;-75
2023/11/13 08:23:36;;;;;;;0.00;0.00;;;13.70;99.90;;;;;;5049735;28;20151;-75
2023/11/13 08:26:03;;;;;;;0.00;0.00;;;13.60;99.90;;;;;;5049699;28;20127;-76
2023/11/13 08:28:31;;;;;;;0.00;0.00;;;13.30;99.90;;;;;;5049753;28;20114;-75
2023/11/13 08:30:57;;;;;;;0.00;0.00;;;14.10;99.90;;;;;;5050894;28;20032;-75
2023/11/13 08:33:23;;;;;;;0.00;0.00;;;14.60;99.90;;;;;;5049403;28;20021;-74
2023/11/13 08:35:49;;;;;;;0.00;0.00;;;14.80;99.90;;;;;;5051135;28;20025;-75
2023/11/13 08:38:16;;;;;;;0.00;0.00;;;15.40;99.90;;;;;;5047683;28;20022;-76
2023/11/13 08:40:42;;;;;;;0.10;0.10;;;15.50;99.90;;;;;;5046019;28;20506;-76
2023/11/13 08:43:10;;;;;;;0.00;0.00;;;15.90;99.90;;;;;;5040836;28;20037;-75
2023/11/13 08:45:37;;;;;;;0.00;0.00;;;15.70;99.90;;;;;;5046626;28;20033;-75
2023/11/13 08:48:03;;;;;;;0.00;0.00;;;15.40;99.90;;;;;;5044169;28;20051;-75
2023/11/13 08:50:30;;;;;;;0.20;0.20;;;15.70;99.90;;;;;;5049204;28;20043;-76
2023/11/13 08:52:56;;;;;;;;;;;15.60;99.90;;;;;;5045093;28;20025;-75
2023/11/13 08:55:23;;;;;;;0.00;0.00;;;15.60;99.90;;;;;;5044076;28;19948;-75
2023/11/13 08:57:49;;;;;;;0.00;0.00;;;15.70;99.90;;;;;;5043637;28;20033;-75
2023/11/13 09:00:20;;;;;;;0.00;0.00;;;16.10;99.90;;;;;;5050451;28;20036;-76
2023/11/13 09:02:54;;;;;;;0.10;0.10;;;16.00;99.90;;;;;;5044254;28;20040;-75
2023/11/13 09:05:25;;;;;;;0.10;0.10;;;15.90;99.90;;;;;;5046529;28;20512;-76
2023/11/13 09:07:51;;;;;;;0.00;0.00;;;15.90;99.90;;;;;;5047477;28;20028;-75
2023/11/13 09:10:21;;;;;;;0.10;0.10;;;15.80;99.90;;;;;;5050209;28;20100;-75
2023/11/13 09:12:47;;;;;;;0.00;0.00;;;16.00;99.90;;;;;;5044602;28;20033;-76
2023/11/13 09:15:14;;;;;;;0.00;0.00;;;16.00;99.90;;;;;;5048161;28;20033;-76
2023/11/13 09:17:48;;;;;;;0.00;0.00;;;16.30;99.90;;;;;;5048218;28;20032;-75
2023/11/13 09:20:16;;;;;;;0.00;0.00;;;16.50;99.90;;;;;;5037366;28;20039;-75
2023/11/13 09:22:48;;;;;;;0.20;0.20;;;16.40;99.90;;;;;;5047600;28;20025;-76
2023/11/13 09:25:15;;;;;;;0.00;0.00;;;16.50;99.90;;;;;;5033286;28;20036;-76
2023/11/13 09:27:46;;;;;;;0.00;0.00;;;16.70;99.90;;;;;;5049839;28;20083;-76
2023/11/13 09:30:14;;;;;;;0.00;0.00;;;16.80;99.90;;;;;;5033311;28;20120;-76
2023/11/13 09:32:44;;;;;;;0.00;0.00;;;16.90;99.90;;;;;;5035415;28;20037;-76
2023/11/13 09:35:18;;;;;;;1.73;1.65;;;16.60;99.90;;;;;;5041915;28;20026;-75
2023/11/13 09:37:47;;;;;;;0.00;0.00;;;16.80;99.90;;;;;;5045134;28;20074;-75
2023/11/13 09:40:15;;;;;;;0.00;0.00;;;16.90;99.90;;;;;;5048225;28;20021;-75
2023/11/13 09:43:14;;;;;;;0.00;0.00;;;17.20;99.90;;;;;;5048704;28;20037;-76
2023/11/13 09:45:45;;;;;;;0.00;0.00;;;17.30;99.90;;;;;;5035390;28;20064;-76
2023/11/13 09:48:15;;;;;;;0.00;0.00;;;17.10;99.90;;;;;;5044218;28;20440;-76
2023/11/13 09:50:41;;;;;;;0.00;0.00;;;16.90;99.90;;;;;;5039699;28;20017;-76
2023/11/13 09:53:08;;;;;;;0.00;0.00;;;17.10;99.90;;;;;;5048910;28;20039;-76
2023/11/13 09:55:38;;;;;;;0.00;0.00;;;17.00;99.90;;;;;;5049399;28;20127;-76
2023/11/13 09:58:04;;;;;;;0.00;0.00;;;17.50;99.90;;;;;;5039614;28;20040;-76
2023/11/13 10:00:32;;;;;;;0.00;0.00;;;17.50;99.90;;;;;;5044623;28;20038;-76
2023/11/13 10:03:00;;;;;;;0.00;0.00;;;17.70;99.90;;;;;;5040301;28;20048;-76
2023/11/13 10:05:26;;;;;;;0.00;0.00;;;18.00;99.90;;;;;;5045064;28;20489;-76
2023/11/13 10:07:52;;;;;;;0.00;0.00;;;18.00;99.90;;;;;;5040065;28;20029;-76
2023/11/13 10:10:23;;;;;;;0.00;0.00;;;18.20;99.90;;;;;;5035898;28;20059;-76
2023/11/13 10:12:53;;;;;;;0.00;0.00;;;18.30;99.90;;;;;;5043474;28;20034;-76
2023/11/13 10:15:28;;;;;;;3.30;0.90;;;18.10;99.90;;;;;;5046399;28;20132;-76
2023/11/13 10:17:56;;;;;;;0.03;0.03;;;17.60;99.90;;;;;;5046896;28;20814;-76
2023/11/13 10:20:23;;;;;;;0.15;0.15;;;17.70;99.90;;;;;;5048349;28;20021;-76
2023/11/13 10:23:00;;;;;;;0.00;0.00;;;17.80;99.90;;;;;;5045965;28;20021;-76
2023/11/13 10:25:27;;;;;;;0.00;0.00;;;17.70;99.90;;;;;;5036448;28;20033;-76
2023/11/13 10:28:01;;;;;;;0.00;0.00;;;17.40;99.90;;;;;;5046576;28;20839;-76
2023/11/13 10:30:30;;;;;;;0.00;0.00;;;17.10;99.90;;;;;;5040459;28;20057;-76
2023/11/13 10:32:57;;;;;;;0.00;0.00;;;16.90;99.90;;;;;;5046203;28;20021;-76
2023/11/13 10:35:28;;;;;;;0.00;0.00;;;16.90;99.90;;;;;;5047955;28;20055;-75
2023/11/13 10:37:59;;;;;;;0.00;0.00;;;17.00;99.90;;;;;;5045742;28;20104;-76
2023/11/13 10:40:28;;;;;;;0.00;0.00;;;17.20;99.90;;;;;;5043647;28;20032;-75
2023/11/13 10:42:54;;;;;;;0.00;0.00;;;17.40;99.90;;;;;;5038918;28;20056;-76
2023/11/13 10:45:20;;;;;;;0.00;0.00;;;17.80;99.90;;;;;;5041970;28;20037;-76
2023/11/13 10:47:49;;;;;;;0.00;0.00;;;17.70;99.90;;;;;;5038413;28;20272;-76
2023/11/13 10:50:19;;;;;;;0.00;0.00;;;17.40;99.90;;;;;;5038790;28;20881;-76
2023/11/13 10:52:49;;;;;;;0.00;0.00;;;17.30;99.90;;;;;;5036017;28;20037;-76
2023/11/13 10:55:18;;;;;;;0.00;0.00;;;17.40;99.90;;;;;;5035321;28;20030;-76
2023/11/13 10:57:44;;;;;;;0.00;0.00;;;17.40;99.90;;;;;;5045138;28;20531;-76
2023/11/13 11:00:14;;;;;;;0.00;0.00;;;17.40;99.90;;;;;;5038099;28;20033;-76
2023/11/13 11:02:45;;;;;;;0.00;0.00;;;17.40;99.90;;;;;;5048017;28;20043;-76
2023/11/13 11:05:22;;;;;;;0.10;0.10;;;17.30;99.90;;;;;;5042374;28;20079;-76
2023/11/13 11:07:55;;;;;;;0.00;0.00;;;17.40;99.90;;;;;;5043194;28;20056;-76
2023/11/13 11:10:26;;;;;;;0.00;0.00;;;17.60;99.90;;;;;;5034807;28;20032;-76
2023/11/13 11:12:59;;;;;;;0.00;0.00;;;17.50;99.90;;;;;;5037275;28;20056;-76
2023/11/13 11:15:56;;;;;;;0.00;0.00;;;17.60;99.90;;;;;;5034912;28;20028;-76
2023/11/13 11:18:27;;;;;;;0.00;0.00;;;17.70;99.90;;;;;;5044582;28;20684;-76
2023/11/13 11:21:12;;;;;;;0.20;0.20;;;17.60;99.90;;;;;;5028537;28;20036;-75
2023/11/13 11:23:57;;;;;;;0.00;0.00;;;17.50;99.90;;;;;;5048200;28;20099;-76
2023/11/13 11:26:22;;;;;;;0.00;0.00;;;17.50;99.90;;;;;;5046120;28;20056;-76
2023/11/13 11:28:48;;;;;;;0.00;0.00;;;17.50;99.90;;;;;;5047878;28;20049;-76
2023/11/13 11:31:43;;;;;;;0.00;0.00;;;17.50;99.90;;;;;;5035220;28;20115;-76
2023/11/13 11:34:16;;;;;;;0.00;0.00;;;17.50;99.90;;;;;;5047451;28;20017;-75
2023/11/13 11:36:45;;;;;;;0.00;0.00;;;17.50;99.90;;;;;;5047071;28;20112;-76
2023/11/13 11:39:18;;;;;;;0.00;0.00;;;17.50;99.90;;;;;;5047503;28;20435;-76
2023/11/13 11:41:45;;;;;;;0.00;0.00;;;17.50;99.90;;;;;;5045056;28;20512;-76
2023/11/13 11:44:16;;;;;;;0.00;0.00;;;17.50;99.90;;;;;;5036685;28;20029;-76
2023/11/13 11:46:46;;;;;;;0.00;0.00;;;17.50;99.90;;;;;;5039730;28;20049;-76
2023/11/13 11:49:44;;;;;;;0.00;0.00;;;17.40;99.90;;;;;;5044923;28;20040;-76
2023/11/13 11:52:11;;;;;;;0.00;0.00;;;17.10;99.90;;;;;;5034870;28;20033;-76
2023/11/13 11:54:38;;;;;;;0.00;0.00;;;17.00;99.90;;;;;;5045096;28;20586;-76
2023/11/13 11:57:04;;;;;;;;;;;17.20;99.90;;;;;;5047245;28;20031;-76
2023/11/13 11:59:31;;;;;;;0.00;0.00;;;17.10;99.90;;;;;;5042312;28;19962;-76
2023/11/13 12:01:58;;;;;;;0.00;0.00;;;16.90;99.90;;;;;;5043656;28;20025;-76
2023/11/13 12:04:28;;;;;;;0.00;0.00;;;17.00;99.90;;;;;;5043824;28;20698;-76
2023/11/13 12:06:53;;;;;;;0.00;0.00;;;17.10;99.90;;;;;;5039222;28;20031;-76
2023/11/13 12:09:21;;;;;;;0.00;0.00;;;17.10;99.90;;;;;;5043521;28;20135;-75
2023/11/13 12:11:51;;;;;;;0.00;0.00;;;17.10;99.90;;;;;;5039169;28;20025;-75
2023/11/13 12:14:20;;;;;;;0.00;0.00;;;17.10;99.90;;;;;;5037118;28;20472;-77
2023/11/13 12:16:48;;;;;;;0.00;0.00;;;17.10;99.90;;;;;;5034909;28;20029;-77
2023/11/13 12:19:14;;;;;;;0.00;0.00;;;17.20;99.90;;;;;;5043872;28;20112;-77
2023/11/13 12:21:41;;;;;;;0.00;0.00;;;17.20;99.90;;;;;;5027090;28;20059;-78
2023/11/13 12:24:11;;;;;;;;;;;17.00;99.90;;;;;;5043016;28;20036;-77
2023/11/13 12:26:44;;;;;;;0.00;0.00;;;16.80;99.90;;;;;;5032877;28;19920;-78
2023/11/13 12:29:17;;;;;;;0.00;0.00;;;16.80;99.90;;;;;;5035546;28;20095;-77
2023/11/13 12:31:45;;;;;;;0.00;0.00;;;17.00;99.90;;;;;;5046723;28;20025;-77
2023/11/13 12:34:14;;;;;;;0.00;0.00;;;17.10;99.90;;;;;;5038174;28;20032;-75
2023/11/13 12:36:43;;;;;;;0.00;0.00;;;17.10;99.90;;;;;;5046813;28;20092;-77
2023/11/13 12:39:15;;;;;;;0.00;0.00;;;17.10;99.90;;;;;;5044023;28;20035;-78
2023/11/13 12:41:41;;;;;;;0.00;0.00;;;17.20;99.90;;;;;;5046390;28;20045;-77
2023/11/13 12:44:07;;;;;;;0.00;0.00;;;17.20;99.90;;;;;;5044733;28;20572;-77
2023/11/13 12:46:33;;;;;;;0.00;0.00;;;17.20;99.90;;;;;;5035250;28;20112;-77
2023/11/13 12:48:59;;;;;;;0.00;0.00;;;17.10;99.90;;;;;;5033859;28;20047;-77